Time,TemperatureF,DewpointF,PressureIn,WindDirection,WindDirectionDegrees,WindSpeedMPH,WindSpeedGustMPH,Humidity,HourlyPrecipIn,Conditions,Clouds,dailyrainin,SoftwareType,DateUTC
2013-10-13 00:11:00,47.0,45.0,30.22,East,91,2.0,3.0,92,0.00,,,0.08,,2013-10-13 07:11:00,
2013-10-13 00:21:00,47.0,45.0,30.22,ENE,77,0.0,2.0,92,0.00,,,0.08,,2013-10-13 07:21:00,
2013-10-13 00:52:00,47.0,45.0,30.22,ENE,70,0.0,1.0,92,0.00,,,0.08,,2013-10-13 07:52:00,
2013-10-13 01:12:00,47.0,45.0,30.22,East,79,0.0,1.0,93,0.00,,,0.08,,2013-10-13 08:12:00,
2013-10-13 01:22:00,47.0,45.0,30.23,East,86,0.0,2.0,94,0.00,,,0.08,,2013-10-13 08:22:00,
2013-10-13 01:42:00,47.0,45.0,30.23,East,81,0.0,1.0,94,0.00,,,0.08,,2013-10-13 08:42:00,
2013-10-13 01:52:00,47.0,46.0,30.23,East,82,0.0,1.0,95,0.00,,,0.08,,2013-10-13 08:52:00,
2013-10-13 02:11:00,47.0,46.0,30.24,ENE,75,0.0,2.0,95,0.00,,,0.08,,2013-10-13 09:11:00,
2013-10-13 02:22:00,47.0,46.0,30.24,ENE,73,1.0,2.0,95,0.00,,,0.08,,2013-10-13 09:22:00,
2013-10-13 02:43:00,47.0,46.0,30.24,East,83,0.0,2.0,95,0.00,,,0.08,,2013-10-13 09:43:00,
2013-10-13 02:53:00,47.0,46.0,30.24,East,83,0.0,2.0,95,0.00,,,0.08,,2013-10-13 09:53:00,
2013-10-13 03:13:00,47.0,46.0,30.24,ENE,64,2.0,2.0,96,0.00,,,0.08,,2013-10-13 10:13:00,
2013-10-13 03:23:00,46.0,45.0,30.25,NE,55,0.0,2.0,96,0.00,,,0.07,,2013-10-13 10:23:00,
2013-10-13 03:43:00,47.0,46.0,30.25,NE,56,1.0,3.0,96,0.01,,,0.08,,2013-10-13 10:43:00,
2013-10-13 03:53:00,46.0,45.0,30.25,East,85,0.0,1.0,96,0.01,,,0.08,,2013-10-13 10:53:00,
2013-10-13 04:12:00,46.0,45.0,30.24,ENE,65,1.0,2.0,96,0.01,,,0.08,,2013-10-13 11:12:00,
2013-10-13 04:21:00,46.0,45.0,30.25,ENE,77,1.0,2.0,96,0.01,,,0.06,,2013-10-13 11:21:00,
2013-10-13 04:52:00,46.0,45.0,30.25,East,79,1.0,1.0,96,0.00,,,0.06,,2013-10-13 11:52:00,
2013-10-13 05:12:00,46.0,45.0,30.26,ENE,68,1.0,2.0,96,0.00,,,0.06,,2013-10-13 12:12:00,
2013-10-13 05:21:00,46.0,45.0,30.26,East,81,1.0,2.0,96,0.00,,,0.04,,2013-10-13 12:21:00,
2013-10-13 05:42:00,46.0,45.0,30.27,NE,41,0.0,2.0,96,0.00,,,0.04,,2013-10-13 12:42:00,
2013-10-13 05:52:00,46.0,45.0,30.27,NNE,21,2.0,4.0,96,0.00,,,0.04,,2013-10-13 12:52:00,
2013-10-13 06:12:00,46.0,45.0,30.27,NNE,27,1.0,4.0,97,0.00,,,0.04,,2013-10-13 13:12:00,
2013-10-13 06:21:00,46.0,45.0,30.27,NNE,25,1.0,7.0,96,0.00,,,0.03,,2013-10-13 13:21:00,
2013-10-13 06:42:00,46.0,45.0,30.28,ENE,74,1.0,4.0,96,0.00,,,0.03,,2013-10-13 13:42:00,
2013-10-13 06:52:00,46.0,45.0,30.28,ENE,74,1.0,4.0,96,0.00,,,0.03,,2013-10-13 13:52:00,
2013-10-13 07:11:00,46.0,45.0,30.28,East,88,3.0,6.0,96,0.00,,,0.03,,2013-10-13 14:11:00,
2013-10-13 07:21:00,45.0,44.0,30.28,East,86,1.0,3.0,96,0.00,,,0.02,,2013-10-13 14:21:00,
2013-10-13 07:41:00,45.0,44.0,30.28,East,81,1.0,3.0,96,0.00,,,0.02,,2013-10-13 14:41:00,
2013-10-13 07:52:00,46.0,45.0,30.28,East,97,1.0,3.0,96,0.00,,,0.02,,2013-10-13 14:52:00,
2013-10-13 08:12:00,46.0,45.0,30.29,NE,51,0.0,2.0,97,0.00,,,0.02,,2013-10-13 15:12:00,
2013-10-13 08:22:00,46.0,45.0,30.29,ENE,75,1.0,2.0,97,0.00,,,0.01,,2013-10-13 15:22:00,
2013-10-13 08:43:00,46.0,45.0,30.29,East,99,2.0,4.0,97,0.00,,,0.01,,2013-10-13 15:43:00,
2013-10-13 08:54:00,46.0,45.0,30.30,East,87,2.0,5.0,97,0.00,,,0.01,,2013-10-13 15:54:00,
2013-10-13 09:12:00,47.0,46.0,30.30,ESE,105,2.0,4.0,97,0.00,,,0.01,,2013-10-13 16:12:00,
2013-10-13 09:23:00,47.0,46.0,30.30,ESE,121,1.0,4.0,96,0.00,,,0.01,,2013-10-13 16:23:00,
2013-10-13 09:42:00,48.0,47.0,30.31,NNE,21,0.0,3.0,96,0.00,,,0.01,,2013-10-13 16:42:00,
2013-10-13 09:54:00,48.0,47.0,30.31,NNE,29,2.0,4.0,95,0.00,,,0.01,,2013-10-13 16:54:00,
2013-10-13 10:12:00,49.0,47.0,30.31,NE,43,2.0,4.0,94,0.00,,,0.01,,2013-10-13 17:12:00,
2013-10-13 10:22:00,49.0,46.0,30.31,ENE,70,2.0,4.0,91,0.00,,,0.01,,2013-10-13 17:22:00,
2013-10-13 10:52:00,50.0,47.0,30.32,ENE,61,3.0,6.0,88,0.00,,,0.01,,2013-10-13 17:52:00,
2013-10-13 11:12:00,50.0,46.0,30.32,East,84,4.0,8.0,87,0.00,,,0.01,,2013-10-13 18:12:00,
2013-10-13 11:22:00,50.0,46.0,30.32,NW,322,2.0,6.0,87,0.00,,,0.01,,2013-10-13 18:22:00,
2013-10-13 11:42:00,50.0,46.0,30.32,NE,51,1.0,5.0,87,0.00,,,0.01,,2013-10-13 18:42:00,
2013-10-13 11:52:00,51.0,47.0,30.32,NW,322,3.0,6.0,86,0.00,,,0.01,,2013-10-13 18:52:00,
2013-10-13 12:11:00,51.0,47.0,30.32,North,353,1.0,6.0,85,0.00,,,0.01,,2013-10-13 19:11:00,
2013-10-13 12:21:00,52.0,47.0,30.32,NE,47,2.0,5.0,83,0.00,,,0.01,,2013-10-13 19:21:00,
2013-10-13 12:42:00,52.0,47.0,30.32,NNE,22,2.0,6.0,82,0.00,,,0.01,,2013-10-13 19:42:00,
2013-10-13 12:52:00,53.0,47.0,30.31,North,7,4.0,7.0,81,0.00,,,0.01,,2013-10-13 19:52:00,
2013-10-13 13:11:00,52.0,46.0,30.31,WNW,298,4.0,7.0,81,0.00,,,0.01,,2013-10-13 20:11:00,
2013-10-13 13:22:00,52.0,46.0,30.31,NW,326,5.0,9.0,80,0.00,,,0.01,,2013-10-13 20:22:00,
2013-10-13 13:43:00,53.0,47.0,30.31,NNE,22,3.0,8.0,80,0.00,,,0.01,,2013-10-13 20:43:00,
2013-10-13 13:52:00,53.0,47.0,30.31,NW,313,1.0,6.0,79,0.00,,,0.01,,2013-10-13 20:52:00,
2013-10-13 14:11:00,54.0,47.0,30.31,WNW,302,3.0,7.0,76,0.00,,,0.01,,2013-10-13 21:11:00,
2013-10-13 14:21:00,55.0,47.0,30.30,NE,44,3.0,5.0,74,0.00,,,0.01,,2013-10-13 21:21:00,
2013-10-13 14:44:00,55.0,47.0,30.30,NNE,13,3.0,8.0,73,0.00,,,0.01,,2013-10-13 21:44:00,
2013-10-13 14:55:00,55.0,46.0,30.30,East,80,5.0,9.0,71,0.00,,,0.01,,2013-10-13 21:55:00,
2013-10-13 15:13:00,56.0,46.0,30.30,North,360,5.0,9.0,70,0.00,,,0.01,,2013-10-13 22:13:00,
2013-10-13 15:24:00,56.0,47.0,30.30,WNW,283,3.0,9.0,71,0.00,,,0.01,,2013-10-13 22:24:00,
2013-10-13 15:43:00,56.0,46.0,30.30,NW,318,3.0,8.0,70,0.00,,,0.01,,2013-10-13 22:43:00,
2013-10-13 15:53:00,55.0,45.0,30.30,NW,318,6.0,9.0,70,0.00,,,0.01,,2013-10-13 22:53:00,
2013-10-13 16:12:00,56.0,45.0,30.30,NW,313,3.0,6.0,67,0.00,,,0.01,,2013-10-13 23:12:00,
2013-10-13 16:21:00,57.0,46.0,30.30,NNE,23,3.0,6.0,66,0.00,,,0.01,,2013-10-13 23:21:00,
2013-10-13 16:42:00,57.0,46.0,30.30,NW,319,3.0,5.0,67,0.00,,,0.01,,2013-10-13 23:42:00,
2013-10-13 16:52:00,55.0,46.0,30.30,NW,309,5.0,9.0,71,0.00,,,0.01,,2013-10-13 23:52:00,
2013-10-13 17:12:00,55.0,45.0,30.30,NW,326,3.0,7.0,70,0.00,,,0.01,,2013-10-14 00:12:00,
2013-10-13 17:21:00,55.0,46.0,30.30,NW,316,3.0,6.0,72,0.00,,,0.01,,2013-10-14 00:21:00,
2013-10-13 17:42:00,54.0,46.0,30.30,NNW,328,3.0,5.0,74,0.00,,,0.01,,2013-10-14 00:42:00,
2013-10-13 17:52:00,55.0,48.0,30.30,WNW,290,1.0,4.0,76,0.00,,,0.01,,2013-10-14 00:52:00,
2013-10-13 18:11:00,54.0,47.0,30.31,NW,313,2.0,4.0,77,0.00,,,0.01,,2013-10-14 01:11:00,
2013-10-13 18:21:00,54.0,48.0,30.31,WNW,298,1.0,3.0,79,0.00,,,0.01,,2013-10-14 01:21:00,
2013-10-13 18:42:00,53.0,47.0,30.31,NW,311,1.0,2.0,80,0.00,,,0.01,,2013-10-14 01:42:00,
2013-10-13 18:52:00,52.0,47.0,30.32,NW,316,0.0,1.0,83,0.00,,,0.01,,2013-10-14 01:52:00,
2013-10-13 19:11:00,52.0,47.0,30.32,NNW,345,1.0,2.0,84,0.00,,,0.01,,2013-10-14 02:11:00,
2013-10-13 19:21:00,52.0,47.0,30.32,North,1,0.0,1.0,83,0.00,,,0.01,,2013-10-14 02:21:00,
2013-10-13 19:42:00,51.0,46.0,30.32,NNE,25,1.0,2.0,84,0.00,,,0.01,,2013-10-14 02:42:00,
2013-10-13 19:52:00,51.0,47.0,30.33,NE,56,0.0,1.0,85,0.00,,,0.01,,2013-10-14 02:52:00,
2013-10-13 20:12:00,51.0,47.0,30.33,East,86,1.0,1.0,86,0.00,,,0.01,,2013-10-14 03:12:00,
2013-10-13 20:22:00,50.0,46.0,30.33,East,86,0.0,0.0,87,0.00,,,0.01,,2013-10-14 03:22:00,
2013-10-13 20:44:00,51.0,47.0,30.33,East,86,0.0,1.0,86,0.00,,,0.01,,2013-10-14 03:44:00,
2013-10-13 20:55:00,51.0,47.0,30.33,East,89,0.0,1.0,86,0.00,,,0.01,,2013-10-14 03:55:00,
2013-10-13 21:14:00,50.0,45.0,30.33,East,93,0.0,0.0,84,0.00,,,0.01,,2013-10-14 04:14:00,
2013-10-13 21:24:00,49.0,46.0,30.34,East,93,0.0,0.0,88,0.00,,,0.01,,2013-10-14 04:24:00,
2013-10-13 21:43:00,48.0,45.0,30.34,East,93,0.0,0.0,90,0.00,,,0.01,,2013-10-14 04:43:00,
2013-10-13 21:54:00,50.0,47.0,30.34,East,94,0.0,0.0,89,0.00,,,0.01,,2013-10-14 04:54:00,
2013-10-13 22:12:00,50.0,46.0,30.35,East,93,0.0,0.0,87,0.00,,,0.01,,2013-10-14 05:12:00,
2013-10-13 22:22:00,49.0,45.0,30.35,East,93,0.0,0.0,87,0.00,,,0.01,,2013-10-14 05:22:00,
2013-10-13 22:43:00,48.0,45.0,30.35,East,94,0.0,0.0,91,0.00,,,0.01,,2013-10-14 05:43:00,
2013-10-13 22:52:00,48.0,46.0,30.35,East,94,0.0,0.0,93,0.00,,,0.01,,2013-10-14 05:52:00,
2013-10-13 23:12:00,48.0,46.0,30.36,East,93,0.0,0.0,93,0.00,,,0.01,,2013-10-14 06:12:00,
2013-10-13 23:22:00,48.0,46.0,30.36,East,94,0.0,1.0,92,0.00,,,0.01,,2013-10-14 06:22:00,
2013-10-13 23:42:00,47.0,45.0,30.36,ENE,78,2.0,3.0,92,0.00,,,0.01,,2013-10-14 06:42:00,
2013-10-13 23:52:00,47.0,45.0,30.36,East,90,2.0,3.0,92,0.00,,,0.01,,2013-10-14 06:52:00,